Time;durP1;ratioP1;P1;durP2;ratioP2;P2;SDS_P1;SDS_P2;PMS_P1;PMS_P2;Temp;Humidity;BMP_temperature;BMP_pressure;BME280_temperature;BME280_humidity;BME280_pressure;Samples;Min_cycle;Max_cycle;Signal;HPM_P1;HPM_P2
2021/06/08 00:01:26;;;;;;;0.40;0.30;;;16.30;99.90;;;;;;5130952;27;20379;-73
2021/06/08 00:03:52;;;;;;;0.40;0.30;;;16.30;99.90;;;;;;5131634;27;20367;-74
2021/06/08 00:06:18;;;;;;;0.40;0.20;;;16.20;99.90;;;;;;5131010;27;20428;-74
2021/06/08 00:08:43;;;;;;;0.40;0.30;;;16.20;99.90;;;;;;5112896;27;20393;-74
2021/06/08 00:11:09;;;;;;;0.40;0.30;;;16.20;99.90;;;;;;5131208;27;20375;-77
2021/06/08 00:13:35;;;;;;;0.40;0.30;;;16.30;99.90;;;;;;5112624;27;20404;-73
2021/06/08 00:16:02;;;;;;;0.40;0.30;;;16.20;99.90;;;;;;5113020;27;20408;-73
2021/06/08 00:18:28;;;;;;;0.40;0.20;;;16.20;99.90;;;;;;5130697;27;20417;-74
2021/06/08 00:20:53;;;;;;;0.40;0.20;;;16.20;99.90;;;;;;5131603;27;20375;-73
2021/06/08 00:23:19;;;;;;;0.40;0.28;;;16.20;99.90;;;;;;5130643;27;20390;-73
2021/06/08 00:25:44;;;;;;;0.40;0.30;;;16.20;99.90;;;;;;5131010;27;20859;-73
2021/06/08 00:28:10;;;;;;;0.40;0.30;;;16.20;99.90;;;;;;5131090;27;20483;-77
2021/06/08 00:30:39;;;;;;;0.40;0.20;;;16.30;99.90;;;;;;5112672;28;20575;-73
2021/06/08 00:33:05;;;;;;;0.40;0.20;;;16.20;99.90;;;;;;5131804;28;20382;-73
2021/06/08 00:35:31;;;;;;;0.40;0.20;;;16.20;99.90;;;;;;5130834;28;21007;-74
2021/06/08 00:37:57;;;;;;;0.40;0.20;;;16.20;99.90;;;;;;5131764;28;20406;-73
2021/06/08 00:40:26;;;;;;;0.40;0.30;;;16.10;99.90;;;;;;5130721;28;20475;-73
2021/06/08 00:42:51;;;;;;;0.40;0.20;;;16.30;99.90;;;;;;5131552;28;20375;-72
2021/06/08 00:45:17;;;;;;;0.40;0.20;;;16.30;99.90;;;;;;5112607;28;20393;-73
2021/06/08 00:47:43;;;;;;;0.40;0.30;;;16.20;99.90;;;;;;5131024;28;20377;-73
2021/06/08 00:50:09;;;;;;;0.40;0.30;;;16.30;99.90;;;;;;5113190;28;20418;-73
2021/06/08 00:52:34;;;;;;;0.40;0.20;;;16.30;99.90;;;;;;5130530;28;20458;-73
2021/06/08 00:55:00;;;;;;;0.40;0.20;;;16.30;99.90;;;;;;5131292;28;20438;-72
2021/06/08 00:57:26;;;;;;;0.40;0.20;;;16.20;99.90;;;;;;5112081;28;20402;-73
2021/06/08 00:59:52;;;;;;;0.40;0.20;;;16.30;99.90;;;;;;5112992;28;20394;-75
2021/06/08 01:02:18;;;;;;;0.40;0.20;;;16.30;99.90;;;;;;5132170;27;20417;-74
2021/06/08 01:04:43;;;;;;;0.40;0.30;;;16.30;99.90;;;;;;5135601;27;20406;-74
2021/06/08 01:07:09;;;;;;;0.40;0.30;;;16.30;99.90;;;;;;5135111;27;20402;-74
2021/06/08 01:09:35;;;;;;;0.40;0.20;;;16.30;99.90;;;;;;5116247;27;20367;-74
2021/06/08 01:12:00;;;;;;;0.40;0.20;;;16.40;99.90;;;;;;5135301;27;20479;-73
2021/06/08 01:14:26;;;;;;;0.40;0.20;;;16.30;99.90;;;;;;5134446;27;20377;-74
2021/06/08 01:16:52;;;;;;;0.40;0.30;;;16.30;99.90;;;;;;5135171;27;20395;-75
2021/06/08 01:19:19;;;;;;;0.40;0.30;;;16.30;99.90;;;;;;5115824;27;20407;-74
2021/06/08 01:21:44;;;;;;;0.40;0.20;;;16.30;99.90;;;;;;5134975;27;20401;-74
2021/06/08 01:24:10;;;;;;;0.40;0.20;;;16.30;99.90;;;;;;5134841;27;20456;-73
2021/06/08 01:26:38;;;;;;;0.40;0.20;;;16.30;99.90;;;;;;5134211;27;20441;-73
2021/06/08 01:29:04;;;;;;;0.40;0.20;;;16.30;99.90;;;;;;5116645;27;20419;-74
2021/06/08 01:31:35;;;;;;;0.40;0.20;;;16.20;99.90;;;;;;5133810;27;20385;-73
2021/06/08 01:34:02;;;;;;;0.40;0.30;;;16.30;99.90;;;;;;5134985;27;20377;-73
2021/06/08 01:36:33;;;;;;;0.40;0.20;;;16.30;99.90;;;;;;5133630;27;20381;-74
2021/06/08 01:38:59;;;;;;;0.40;0.20;;;16.30;99.90;;;;;;5116320;27;20394;-74
2021/06/08 01:41:26;;;;;;;0.40;0.20;;;16.30;99.90;;;;;;5134108;27;20394;-74
2021/06/08 01:43:53;;;;;;;0.40;0.20;;;16.40;99.90;;;;;;5134487;27;20427;-76
2021/06/08 01:46:20;;;;;;;0.40;0.30;;;16.40;99.90;;;;;;5114981;27;20390;-83
2021/06/08 01:48:46;;;;;;;0.40;0.20;;;16.40;99.90;;;;;;5134053;27;20444;-80
2021/06/08 01:51:31;;;;;;;0.40;0.20;;;16.30;99.90;;;;;;5133907;27;20926;-81
2021/06/08 01:54:18;;;;;;;0.40;0.20;;;16.20;99.90;;;;;;5115582;27;20394;-81
2021/06/08 01:56:46;;;;;;;0.40;0.30;;;16.20;99.90;;;;;;5134016;27;20487;-81
2021/06/08 01:59:25;;;;;;;0.40;0.20;;;16.10;99.90;;;;;;5134328;27;20389;-81
2021/06/08 02:02:10;;;;;;;0.40;0.20;;;16.20;99.90;;;;;;5115826;27;20386;-81
2021/06/08 02:04:52;;;;;;;0.40;0.20;;;16.10;99.90;;;;;;5133156;27;21212;-81
2021/06/08 02:07:20;;;;;;;0.40;0.20;;;16.10;99.90;;;;;;5133674;27;20704;-85
2021/06/08 02:09:59;;;;;;;0.40;0.20;;;16.10;99.90;;;;;;5115583;27;20395;-80
2021/06/08 02:12:25;;;;;;;0.40;0.20;;;16.10;99.90;;;;;;5132717;27;20471;-80
2021/06/08 02:15:11;;;;;;;0.40;0.30;;;16.10;99.90;;;;;;5114686;27;20527;-81
2021/06/08 02:17:43;;;;;;;0.40;0.20;;;16.10;99.90;;;;;;5113553;27;20927;-80
2021/06/08 02:20:17;;;;;;;0.40;0.20;;;16.10;99.90;;;;;;5133958;27;20515;-81
2021/06/08 02:22:46;;;;;;;0.40;0.30;;;16.20;99.90;;;;;;5132992;27;20381;-80
2021/06/08 02:25:14;;;;;;;0.40;0.20;;;16.30;99.90;;;;;;5133403;27;20389;-81
2021/06/08 02:27:40;;;;;;;0.40;0.20;;;16.20;99.90;;;;;;5132622;27;20532;-81
2021/06/08 02:30:07;;;;;;;0.40;0.20;;;16.20;99.90;;;;;;5133889;27;20453;-80
2021/06/08 02:32:34;;;;;;;0.40;0.20;;;16.20;99.90;;;;;;5131452;27;20391;-81
2021/06/08 02:35:00;;;;;;;0.40;0.20;;;16.10;99.90;;;;;;5133496;27;20401;-81
2021/06/08 02:37:27;;;;;;;0.40;0.20;;;16.20;99.90;;;;;;5132305;27;20425;-81
2021/06/08 02:39:54;;;;;;;0.40;0.30;;;16.10;99.90;;;;;;5114982;27;20878;-81
2021/06/08 02:42:21;;;;;;;0.40;0.30;;;16.10;99.90;;;;;;5133179;27;20379;-84
2021/06/08 02:44:48;;;;;;;0.40;0.20;;;16.10;99.90;;;;;;5133478;27;20374;-81
2021/06/08 02:47:17;;;;;;;0.40;0.20;;;16.10;99.90;;;;;;5132999;27;20378;-81
2021/06/08 02:49:43;;;;;;;0.40;0.20;;;16.20;99.90;;;;;;5132189;27;20858;-82
2021/06/08 02:52:10;;;;;;;0.40;0.28;;;16.10;99.90;;;;;;5114355;27;20410;-82
2021/06/08 02:54:37;;;;;;;0.40;0.20;;;16.10;99.90;;;;;;5131845;27;20463;-82
2021/06/08 02:57:03;;;;;;;0.40;0.30;;;16.10;99.90;;;;;;5132681;27;20407;-82
2021/06/08 02:59:31;;;;;;;0.40;0.30;;;16.20;99.90;;;;;;5132144;27;20743;-82
2021/06/08 03:01:58;;;;;;;0.40;0.30;;;16.10;99.90;;;;;;5132515;27;20374;-82
2021/06/08 03:04:31;;;;;;;0.40;0.20;;;16.10;99.90;;;;;;5132132;27;20378;-83
2021/06/08 03:07:01;;;;;;;0.40;0.20;;;16.20;99.90;;;;;;5132729;27;20730;-83
2021/06/08 03:09:38;;;;;;;0.40;0.20;;;16.10;99.90;;;;;;5112932;27;20387;-82
2021/06/08 03:12:10;;;;;;;0.40;0.30;;;16.10;99.90;;;;;;5133067;27;20711;-82
2021/06/08 03:14:37;;;;;;;0.40;0.20;;;16.20;99.90;;;;;;5113601;27;20378;-81
2021/06/08 03:17:05;;;;;;;0.40;0.30;;;16.20;99.90;;;;;;5114098;27;20792;-81
2021/06/08 03:19:33;;;;;;;0.40;0.20;;;16.10;99.90;;;;;;5131411;27;20459;-81
2021/06/08 03:22:07;;;;;;;0.40;0.20;;;16.20;99.90;;;;;;5132213;27;20701;-80
2021/06/08 03:24:35;;;;;;;0.40;0.20;;;16.10;99.90;;;;;;5131655;27;20855;-81
2021/06/08 03:27:02;;;;;;;0.40;0.20;;;16.10;99.90;;;;;;5114094;27;20485;-80
2021/06/08 03:29:31;;;;;;;0.40;0.20;;;16.10;99.90;;;;;;5131353;27;20379;-80
2021/06/08 03:31:57;;;;;;;0.40;0.30;;;16.10;99.90;;;;;;5113939;27;20485;-79
2021/06/08 03:34:24;;;;;;;0.40;0.30;;;16.10;99.90;;;;;;5131876;27;20375;-83
2021/06/08 03:36:52;;;;;;;0.40;0.25;;;16.10;99.90;;;;;;5131865;27;20898;-80
2021/06/08 03:39:20;;;;;;;0.40;0.25;;;16.20;99.90;;;;;;5132257;27;20728;-80
2021/06/08 03:41:47;;;;;;;0.40;0.20;;;16.10;99.90;;;;;;5131624;27;20383;-81
2021/06/08 03:44:19;;;;;;;0.40;0.30;;;16.20;99.90;;;;;;5131597;27;20385;-80
2021/06/08 03:46:47;;;;;;;0.40;0.20;;;16.10;99.90;;;;;;5113048;27;20421;-80
2021/06/08 03:49:13;;;;;;;0.40;0.20;;;16.10;99.90;;;;;;5131775;27;20854;-80
2021/06/08 03:51:40;;;;;;;0.40;0.20;;;16.10;99.90;;;;;;5131508;27;20371;-80
2021/06/08 03:54:06;;;;;;;0.40;0.30;;;16.10;99.90;;;;;;5131411;27;20387;-80
2021/06/08 03:56:33;;;;;;;0.40;0.20;;;16.10;99.90;;;;;;5112833;27;20727;-81
2021/06/08 03:58:59;;;;;;;0.40;0.20;;;16.10;99.90;;;;;;5131502;27;20386;-80
2021/06/08 04:01:27;;;;;;;0.40;0.20;;;16.00;99.90;;;;;;5131447;27;20478;-84
2021/06/08 04:03:53;;;;;;;0.40;0.20;;;16.10;99.90;;;;;;5132286;27;20378;-80
2021/06/08 04:06:19;;;;;;;0.40;0.20;;;16.20;99.90;;;;;;5132538;27;20769;-80
2021/06/08 04:08:46;;;;;;;0.40;0.30;;;16.20;99.90;;;;;;5131530;27;20728;-80
2021/06/08 04:11:12;;;;;;;0.40;0.20;;;16.10;99.90;;;;;;5132314;27;20435;-80
2021/06/08 04:13:41;;;;;;;0.40;0.30;;;16.10;99.90;;;;;;5131510;27;20371;-80
2021/06/08 04:16:08;;;;;;;0.40;0.20;;;16.20;99.90;;;;;;5132008;27;20859;-80
2021/06/08 04:18:35;;;;;;;0.40;0.30;;;16.20;99.90;;;;;;5131320;27;20402;-80
2021/06/08 04:21:02;;;;;;;0.40;0.30;;;16.20;99.90;;;;;;5131897;27;20404;-80
2021/06/08 04:23:29;;;;;;;0.40;0.20;;;16.20;99.90;;;;;;5131153;27;20383;-81
2021/06/08 04:25:55;;;;;;;0.40;0.20;;;16.20;99.90;;;;;;5132094;27;20375;-80
2021/06/08 04:28:22;;;;;;;0.40;0.20;;;16.20;99.90;;;;;;5132380;27;20413;-79
2021/06/08 04:30:50;;;;;;;0.40;0.20;;;16.20;99.90;;;;;;5131256;28;20398;-79
2021/06/08 04:33:21;;;;;;;0.40;0.20;;;16.30;99.90;;;;;;5131393;28;20371;-79
2021/06/08 04:35:47;;;;;;;0.40;0.20;;;16.20;99.90;;;;;;5128655;27;20406;-79
2021/06/08 04:38:15;;;;;;;0.40;0.20;;;16.30;99.90;;;;;;5135785;27;20460;-79
2021/06/08 04:40:43;;;;;;;0.40;0.30;;;16.30;99.90;;;;;;5145388;27;20737;-79
2021/06/08 04:43:09;;;;;;;0.40;0.20;;;16.20;99.90;;;;;;5142585;27;20846;-81
2021/06/08 04:45:35;;;;;;;0.40;0.30;;;16.20;99.90;;;;;;5122279;27;20461;-81
2021/06/08 04:48:00;;;;;;;0.40;0.20;;;16.20;99.90;;;;;;5141386;27;20365;-81
2021/06/08 04:50:27;;;;;;;0.40;0.20;;;16.30;99.90;;;;;;5118323;27;20777;-83
2021/06/08 04:52:56;;;;;;;0.40;0.30;;;16.20;99.90;;;;;;5117949;27;20378;-80
2021/06/08 04:55:23;;;;;;;0.40;0.20;;;16.20;99.90;;;;;;5114544;27;20479;-81
2021/06/08 04:57:51;;;;;;;0.40;0.20;;;16.20;99.90;;;;;;5142693;27;20450;-83
2021/06/08 05:00:20;;;;;;;0.40;0.30;;;16.20;99.90;;;;;;5143331;27;20385;-80
2021/06/08 05:02:54;;;;;;;0.40;0.23;;;16.20;99.90;;;;;;5135470;27;20519;-81
2021/06/08 05:05:29;;;;;;;0.40;0.30;;;16.30;99.90;;;;;;5135366;27;20734;-81
2021/06/08 05:08:13;;;;;;;0.40;0.30;;;16.20;99.90;;;;;;5122107;27;20475;-81
2021/06/08 05:10:44;;;;;;;0.40;0.20;;;16.20;99.90;;;;;;5111605;27;20379;-79
2021/06/08 05:13:11;;;;;;;0.40;0.20;;;16.30;99.90;;;;;;5118197;27;20386;-82
2021/06/08 05:15:40;;;;;;;0.40;0.30;;;16.20;99.90;;;;;;5133162;27;20378;-81
2021/06/08 05:18:10;;;;;;;0.40;0.30;;;16.20;99.90;;;;;;5116398;27;20403;-81
2021/06/08 05:20:39;;;;;;;0.40;0.20;;;16.20;99.90;;;;;;5132281;27;20483;-81
2021/06/08 05:23:29;;;;;;;0.40;0.27;;;16.10;99.90;;;;;;5122290;27;20388;-83
2021/06/08 05:25:55;;;;;;;0.40;0.20;;;16.40;99.90;;;;;;5111370;27;20445;-81
2021/06/08 05:28:21;;;;;;;0.40;0.22;;;16.20;99.90;;;;;;5101466;27;20406;-80
2021/06/08 05:30:47;;;;;;;0.40;0.20;;;16.20;99.90;;;;;;5115498;27;20391;-81
2021/06/08 05:33:24;;;;;;;0.40;0.25;;;16.20;99.90;;;;;;5134717;27;20443;-82
2021/06/08 05:35:54;;;;;;;0.40;0.30;;;16.20;99.90;;;;;;5133567;27;20382;-82
2021/06/08 05:38:37;;;;;;;0.40;0.20;;;16.20;99.90;;;;;;5134581;27;20462;-81
2021/06/08 05:41:08;;;;;;;0.40;0.20;;;16.10;99.90;;;;;;5134493;27;20397;-82
2021/06/08 05:43:34;;;;;;;0.40;0.20;;;16.20;99.90;;;;;;5115127;27;20395;-81
2021/06/08 05:46:01;;;;;;;0.40;0.30;;;16.10;99.90;;;;;;5134474;27;20371;-81
2021/06/08 05:48:27;;;;;;;0.40;0.20;;;16.10;99.90;;;;;;5134373;27;20379;-81
2021/06/08 05:50:57;;;;;;;0.40;0.20;;;16.10;99.90;;;;;;5138250;27;20400;-81
2021/06/08 05:53:24;;;;;;;0.40;0.30;;;16.10;99.90;;;;;;5127354;27;20492;-80
2021/06/08 05:55:51;;;;;;;0.40;0.30;;;16.20;99.90;;;;;;5141446;27;20626;-81
2021/06/08 05:58:23;;;;;;;0.40;0.30;;;16.10;99.90;;;;;;5140565;27;20433;-80
2021/06/08 06:00:50;;;;;;;0.40;0.20;;;16.20;99.90;;;;;;5140141;27;20386;-82
2021/06/08 06:03:18;;;;;;;0.40;0.30;;;16.20;99.90;;;;;;5140527;27;20386;-80
2021/06/08 06:05:44;;;;;;;0.40;0.30;;;16.10;99.90;;;;;;5141904;27;20375;-81
2021/06/08 06:08:10;;;;;;;0.40;0.20;;;16.20;99.90;;;;;;5143193;27;20460;-79
2021/06/08 06:10:37;;;;;;;0.40;0.20;;;16.20;99.90;;;;;;5123458;27;20532;-81
2021/06/08 06:13:04;;;;;;;0.40;0.20;;;16.20;99.90;;;;;;5147199;27;20377;-80
2021/06/08 06:15:31;;;;;;;0.40;0.20;;;16.20;99.90;;;;;;5145961;27;20834;-79
2021/06/08 06:17:57;;;;;;;0.40;0.30;;;16.20;99.90;;;;;;5144840;27;20460;-79
2021/06/08 06:20:24;;;;;;;0.40;0.20;;;16.20;99.90;;;;;;5126491;27;20774;-80
2021/06/08 06:22:50;;;;;;;0.40;0.20;;;16.20;99.90;;;;;;5143571;27;20382;-80
2021/06/08 06:25:17;;;;;;;0.40;0.30;;;16.30;99.90;;;;;;5143222;27;20404;-80
2021/06/08 06:27:46;;;;;;;0.40;0.30;;;16.30;99.90;;;;;;5140827;27;20379;-81
2021/06/08 06:30:14;;;;;;;0.40;0.30;;;16.30;99.90;;;;;;5122144;27;20870;-80
2021/06/08 06:32:41;;;;;;;0.40;0.30;;;16.30;99.90;;;;;;5142359;27;20416;-81
2021/06/08 06:35:12;;;;;;;0.40;0.30;;;16.40;99.90;;;;;;5145013;27;20373;-82
2021/06/08 06:37:39;;;;;;;0.40;0.30;;;16.40;99.90;;;;;;5138125;27;20403;-82
2021/06/08 06:40:12;;;;;;;0.40;0.20;;;16.50;99.90;;;;;;5133655;27;20466;-80
2021/06/08 06:42:51;;;;;;;0.40;0.20;;;16.60;99.90;;;;;;5114519;27;20425;-81
2021/06/08 06:45:20;;;;;;;0.40;0.30;;;16.60;99.90;;;;;;5133561;27;20382;-81
2021/06/08 06:47:47;;;;;;;0.40;0.30;;;16.60;99.90;;;;;;5132579;27;20386;-81
2021/06/08 06:50:14;;;;;;;0.40;0.20;;;16.70;99.90;;;;;;5133405;27;20458;-80
2021/06/08 06:52:42;;;;;;;0.40;0.30;;;16.70;99.90;;;;;;5132696;27;20363;-81
2021/06/08 06:55:11;;;;;;;0.40;0.30;;;16.70;99.90;;;;;;5132933;27;20752;-81
2021/06/08 06:57:40;;;;;;;0.40;0.20;;;16.70;99.90;;;;;;5132877;27;20410;-84
2021/06/08 07:00:07;;;;;;;0.40;0.30;;;16.80;99.90;;;;;;5132675;27;20727;-81
2021/06/08 07:02:35;;;;;;;0.40;0.30;;;16.90;99.90;;;;;;5131956;27;20382;-81
2021/06/08 07:05:01;;;;;;;0.40;0.20;;;16.90;99.90;;;;;;5113916;27;20423;-82
2021/06/08 07:07:27;;;;;;;0.40;0.30;;;16.90;99.90;;;;;;5132402;27;20468;-79
2021/06/08 07:09:53;;;;;;;0.40;0.20;;;16.80;99.90;;;;;;5131736;27;20375;-81
2021/06/08 07:12:21;;;;;;;0.40;0.30;;;16.80;99.90;;;;;;5114182;27;20375;-86
2021/06/08 07:14:48;;;;;;;0.40;0.30;;;16.80;99.90;;;;;;5131721;27;20469;-83
2021/06/08 07:17:14;;;;;;;0.40;0.20;;;16.80;99.90;;;;;;5132440;27;20870;-79
2021/06/08 07:19:41;;;;;;;0.40;0.30;;;16.70;99.90;;;;;;5131983;27;20379;-81
2021/06/08 07:22:08;;;;;;;0.40;0.30;;;16.90;99.90;;;;;;5132604;27;20470;-80
2021/06/08 07:24:38;;;;;;;0.40;0.20;;;16.80;99.90;;;;;;5132998;27;20486;-81
2021/06/08 07:27:04;;;;;;;0.40;0.30;;;16.80;99.90;;;;;;5114360;27;20390;-82
2021/06/08 07:29:30;;;;;;;0.40;0.30;;;16.70;99.90;;;;;;5132818;27;20383;-81
2021/06/08 07:31:58;;;;;;;0.40;0.20;;;16.80;99.90;;;;;;5131776;27;20367;-80
2021/06/08 07:34:47;;;;;;;0.40;0.20;;;16.90;99.90;;;;;;5132322;27;20391;-80
2021/06/08 07:37:19;;;;;;;0.40;0.20;;;16.90;99.90;;;;;;5114015;27;20456;-80
2021/06/08 07:39:54;;;;;;;0.40;0.20;;;16.80;99.90;;;;;;5113226;27;20385;-81
2021/06/08 07:42:33;;;;;;;0.40;0.30;;;16.80;99.90;;;;;;5132411;27;20402;-82
2021/06/08 07:45:05;;;;;;;0.40;0.30;;;16.90;99.90;;;;;;5113196;27;20405;-81
2021/06/08 07:47:32;;;;;;;0.40;0.30;;;16.90;99.90;;;;;;5132136;27;20474;-81
2021/06/08 07:50:00;;;;;;;0.40;0.30;;;16.90;99.90;;;;;;5131464;27;20370;-82
2021/06/08 07:52:30;;;;;;;0.40;0.30;;;17.10;99.90;;;;;;5132267;27;20462;-81
2021/06/08 07:54:56;;;;;;;0.40;0.28;;;17.20;99.90;;;;;;5131331;27;20737;-81
2021/06/08 07:57:23;;;;;;;0.40;0.30;;;17.20;99.90;;;;;;5132046;27;20405;-81
2021/06/08 07:59:50;;;;;;;0.40;0.30;;;17.40;99.90;;;;;;5113009;27;20731;-81
2021/06/08 08:02:20;;;;;;;0.40;0.30;;;17.30;99.90;;;;;;5132122;27;20375;-81
2021/06/08 08:04:51;;;;;;;0.40;0.25;;;17.20;99.90;;;;;;5131114;27;20379;-81
2021/06/08 08:07:25;;;;;;;0.40;0.30;;;17.20;99.90;;;;;;5132084;27;20466;-81
2021/06/08 08:09:52;;;;;;;0.40;0.30;;;17.20;99.90;;;;;;5131663;27;20375;-82
2021/06/08 08:12:18;;;;;;;0.40;0.20;;;17.20;99.90;;;;;;5131154;27;20366;-81
2021/06/08 08:14:46;;;;;;;0.40;0.20;;;17.20;99.90;;;;;;5131241;27;20377;-81
2021/06/08 08:17:13;;;;;;;0.40;0.20;;;17.30;99.90;;;;;;5131769;27;20451;-82
2021/06/08 08:19:39;;;;;;;0.40;0.30;;;17.40;99.90;;;;;;5131714;27;20476;-84
2021/06/08 08:22:06;;;;;;;0.40;0.30;;;17.40;99.90;;;;;;5112998;27;20386;-81
2021/06/08 08:24:33;;;;;;;0.40;0.20;;;17.40;99.90;;;;;;5132058;27;20464;-81
2021/06/08 08:27:01;;;;;;;0.40;0.20;;;17.40;99.90;;;;;;5131062;27;20383;-81
2021/06/08 08:29:27;;;;;;;0.40;0.30;;;17.40;99.90;;;;;;5131896;27;20810;-81
2021/06/08 08:31:53;;;;;;;0.40;0.30;;;17.40;99.90;;;;;;5131041;28;20371;-81
2021/06/08 08:34:19;;;;;;;0.40;0.30;;;17.50;99.90;;;;;;5131578;28;20373;-82
2021/06/08 08:36:45;;;;;;;0.40;0.30;;;17.40;99.90;;;;;;5130606;28;20839;-82
2021/06/08 08:39:11;;;;;;;0.40;0.20;;;17.50;99.90;;;;;;5131794;28;20814;-81
2021/06/08 08:41:38;;;;;;;0.40;0.30;;;17.60;99.90;;;;;;5131728;28;20375;-82
2021/06/08 08:44:07;;;;;;;0.40;0.30;;;17.40;99.90;;;;;;5130703;28;20394;-82
2021/06/08 08:46:33;;;;;;;0.40;0.20;;;17.30;99.90;;;;;;5131773;28;20419;-81
2021/06/08 08:48:59;;;;;;;0.40;0.20;;;17.40;99.90;;;;;;5131328;28;20419;-82
2021/06/08 08:51:27;;;;;;;0.40;0.30;;;17.40;99.90;;;;;;5113407;28;20378;-81
2021/06/08 08:53:54;;;;;;;0.40;0.30;;;17.40;99.90;;;;;;5112702;28;20394;-82
2021/06/08 08:56:31;;;;;;;0.40;0.22;;;17.30;99.90;;;;;;5132012;28;20398;-82
2021/06/08 08:59:01;;;;;;;0.40;0.20;;;17.40;99.90;;;;;;5131167;28;20405;-82
2021/06/08 09:01:29;;;;;;;0.40;0.20;;;17.40;99.90;;;;;;5113363;28;20859;-82
2021/06/08 09:03:54;;;;;;;0.40;0.20;;;17.40;99.90;;;;;;5130681;28;20392;-82
2021/06/08 09:06:21;;;;;;;0.40;0.20;;;17.60;99.90;;;;;;5131271;28;20386;-83
2021/06/08 09:08:47;;;;;;;0.40;0.20;;;17.40;99.90;;;;;;5130551;28;20477;-83
2021/06/08 09:11:13;;;;;;;0.40;0.30;;;17.60;99.90;;;;;;5131232;28;20466;-84
2021/06/08 09:13:40;;;;;;;0.40;0.30;;;17.90;99.90;;;;;;5112876;28;20443;-83
2021/06/08 09:16:10;;;;;;;0.40;0.30;;;17.90;99.90;;;;;;5130586;28;20414;-84
2021/06/08 09:18:37;;;;;;;0.40;0.30;;;18.10;99.90;;;;;;5113139;28;20836;-82
2021/06/08 09:21:21;;;;;;;0.40;0.30;;;17.80;99.90;;;;;;5131147;28;20403;-82
2021/06/08 09:23:47;;;;;;;0.40;0.30;;;18.00;99.90;;;;;;5115084;27;20462;-85
2021/06/08 09:26:17;;;;;;;0.40;0.30;;;17.90;99.90;;;;;;5135309;27;20375;-85
2021/06/08 09:28:45;;;;;;;0.40;0.20;;;18.00;99.90;;;;;;5134984;27;20382;-85
2021/06/08 09:31:25;;;;;;;0.40;0.30;;;18.00;99.90;;;;;;5117346;27;20386;-81
2021/06/08 09:33:55;;;;;;;0.40;0.30;;;18.20;99.90;;;;;;5135113;27;20718;-83
2021/06/08 09:36:28;;;;;;;0.40;0.20;;;18.20;99.90;;;;;;5117057;27;20466;-83
2021/06/08 09:39:02;;;;;;;0.40;0.20;;;18.30;99.90;;;;;;5134706;27;20747;-81
2021/06/08 09:41:43;;;;;;;0.40;0.30;;;18.30;99.90;;;;;;5135204;27;20463;-81
2021/06/08 09:44:14;;;;;;;0.40;0.20;;;18.30;99.90;;;;;;5116376;27;20387;-83
2021/06/08 09:46:50;;;;;;;0.40;0.30;;;18.20;99.90;;;;;;5112600;27;20845;-82
2021/06/08 09:49:35;;;;;;;0.40;0.30;;;18.40;99.90;;;;;;5140322;27;20390;-82
2021/06/08 09:52:09;;;;;;;0.40;0.30;;;18.50;99.90;;;;;;5109685;27;20390;-77
2021/06/08 09:54:36;;;;;;;0.40;0.20;;;18.50;99.90;;;;;;5113322;28;20453;-80
2021/06/08 09:57:14;;;;;;;0.40;0.30;;;18.50;99.90;;;;;;5116053;28;20911;-76
2021/06/08 09:59:45;;;;;;;0.40;0.20;;;18.50;99.90;;;;;;5114817;28;20401;-79
2021/06/08 10:02:38;;;;;;;0.40;0.30;;;18.50;99.90;;;;;;5110603;28;20384;-82
2021/06/08 10:05:30;;;;;;;0.40;0.20;;;18.70;99.90;;;;;;5112439;28;21308;-82
2021/06/08 10:07:59;;;;;;;0.40;0.20;;;18.80;99.90;;;;;;5112292;28;20397;-81
2021/06/08 10:10:46;;;;;;;0.40;0.30;;;18.90;99.90;;;;;;5111761;28;20392;-83
2021/06/08 10:13:15;;;;;;;0.40;0.30;;;18.80;99.90;;;;;;5114060;28;20397;-78
2021/06/08 10:16:07;;;;;;;0.40;0.20;;;18.90;99.90;;;;;;5113723;28;20477;-79
2021/06/08 10:18:50;;;;;;;0.40;0.20;;;18.90;99.90;;;;;;5113434;28;20396;-80
2021/06/08 10:21:17;;;;;;;0.40;0.30;;;18.90;99.90;;;;;;5113991;28;20406;-79
2021/06/08 10:23:43;;;;;;;0.40;0.20;;;18.90;99.90;;;;;;5113405;28;20385;-79
2021/06/08 10:26:12;;;;;;;0.40;0.30;;;18.90;99.90;;;;;;5112806;28;20471;-80
2021/06/08 10:28:38;;;;;;;0.40;0.20;;;18.90;99.90;;;;;;5113471;28;20831;-81
2021/06/08 10:31:05;;;;;;;0.40;0.20;;;18.90;99.90;;;;;;5112381;28;20444;-78
2021/06/08 10:33:32;;;;;;;0.40;0.30;;;18.90;99.90;;;;;;5113000;28;20381;-80
2021/06/08 10:35:58;;;;;;;0.40;0.20;;;19.00;99.90;;;;;;5111759;28;20392;-80
2021/06/08 10:38:25;;;;;;;0.40;0.30;;;18.80;99.90;;;;;;5113309;28;20414;-80
2021/06/08 10:40:54;;;;;;;0.40;0.30;;;18.70;99.90;;;;;;5112585;28;20411;-79
2021/06/08 10:43:29;;;;;;;0.40;0.30;;;18.70;99.90;;;;;;5113357;28;20400;-80
2021/06/08 10:45:56;;;;;;;0.40;0.30;;;18.70;99.90;;;;;;5112095;28;20762;-78
2021/06/08 10:48:37;;;;;;;0.40;0.20;;;18.70;99.90;;;;;;5111501;28;20388;-78
2021/06/08 10:51:14;;;;;;;0.40;0.20;;;18.60;99.90;;;;;;5107468;28;20385;-79
2021/06/08 10:53:46;;;;;;;0.40;0.20;;;18.50;99.90;;;;;;5112731;28;20918;-77
2021/06/08 10:56:31;;;;;;;0.40;0.30;;;18.50;99.90;;;;;;5130636;27;20398;-79
2021/06/08 10:59:19;;;;;;;0.40;0.30;;;18.50;99.90;;;;;;5132371;27;20407;-79
2021/06/08 11:01:45;;;;;;;0.40;0.30;;;18.40;99.90;;;;;;5130817;27;20391;-78
2021/06/08 11:04:16;;;;;;;0.40;0.30;;;18.60;99.90;;;;;;5132292;27;20898;-78
2021/06/08 11:06:51;;;;;;;0.40;0.20;;;18.70;99.90;;;;;;5132825;27;20467;-77
2021/06/08 11:09:27;;;;;;;0.40;0.30;;;18.80;99.90;;;;;;5114759;27;20423;-78
2021/06/08 11:12:08;;;;;;;0.40;0.20;;;18.80;99.90;;;;;;5113937;27;20421;-80
2021/06/08 11:15:10;;;;;;;0.40;0.30;;;19.00;99.90;;;;;;5133428;27;20421;-79
2021/06/08 11:17:38;;;;;;;0.40;0.30;;;19.10;99.90;;;;;;5127599;27;20421;-78
2021/06/08 11:20:20;;;;;;;0.40;0.20;;;19.00;99.90;;;;;;5130893;27;20379;-76
2021/06/08 11:22:51;;;;;;;0.40;0.30;;;19.10;99.90;;;;;;5131313;27;20413;-83
2021/06/08 11:25:38;;;;;;;0.40;0.20;;;18.90;99.90;;;;;;5133374;27;20390;-79
2021/06/08 11:28:14;;;;;;;0.40;0.30;;;18.90;99.90;;;;;;5113873;27;20397;-78
2021/06/08 11:30:53;;;;;;;0.40;0.20;;;18.80;99.90;;;;;;5133264;27;20382;-76
2021/06/08 11:33:39;;;;;;;0.40;0.20;;;18.70;99.90;;;;;;5132487;27;20764;-78
2021/06/08 11:36:22;;;;;;;0.40;0.30;;;18.80;99.90;;;;;;5122501;27;20398;-78
2021/06/08 11:38:56;;;;;;;0.40;0.30;;;18.70;99.90;;;;;;5103198;28;20896;-78
2021/06/08 11:41:22;;;;;;;0.40;0.20;;;18.80;99.90;;;;;;5112127;28;20442;-77
2021/06/08 11:43:57;;;;;;;0.40;0.20;;;18.90;99.90;;;;;;5120432;27;20406;-78
2021/06/08 11:46:50;;;;;;;0.40;0.20;;;18.80;99.90;;;;;;5127515;27;20866;-76
2021/06/08 11:49:18;;;;;;;0.40;0.20;;;18.90;99.90;;;;;;5131644;27;20378;-80
2021/06/08 11:52:05;;;;;;;0.40;0.20;;;18.90;99.90;;;;;;5132120;27;20832;-78
2021/06/08 11:54:31;;;;;;;0.40;0.20;;;18.80;99.90;;;;;;5113208;27;20419;-76
2021/06/08 11:57:08;;;;;;;0.40;0.20;;;18.80;99.90;;;;;;5131271;27;20381;-77
2021/06/08 11:59:56;;;;;;;0.40;0.20;;;18.70;99.90;;;;;;5113397;27;20390;-76
2021/06/08 12:02:31;;;;;;;0.40;0.20;;;18.80;99.90;;;;;;5131757;27;20930;-78
2021/06/08 12:05:10;;;;;;;0.40;0.30;;;18.70;99.90;;;;;;5128240;27;20405;-77
2021/06/08 12:07:53;;;;;;;0.40;0.30;;;18.90;99.90;;;;;;5131539;27;20747;-81
2021/06/08 12:10:33;;;;;;;0.40;0.30;;;19.10;99.90;;;;;;5113243;27;20375;-79
2021/06/08 12:12:59;;;;;;;0.40;0.30;;;19.10;99.90;;;;;;5130872;27;20933;-81
2021/06/08 12:15:38;;;;;;;0.40;0.30;;;19.40;99.90;;;;;;5131451;27;20386;-79
2021/06/08 12:18:07;;;;;;;0.40;0.30;;;19.50;99.90;;;;;;5130431;27;20499;-78
2021/06/08 12:20:35;;;;;;;0.40;0.30;;;19.40;99.90;;;;;;5131217;27;20436;-79
2021/06/08 12:23:01;;;;;;;0.40;0.30;;;19.30;99.90;;;;;;5112529;27;20395;-80
2021/06/08 12:25:29;;;;;;;0.40;0.30;;;19.40;99.90;;;;;;5131368;27;20383;-80
2021/06/08 12:27:54;;;;;;;0.40;0.30;;;19.30;99.90;;;;;;5130620;27;20387;-80
2021/06/08 12:30:28;;;;;;;0.40;0.20;;;19.20;99.90;;;;;;5131397;27;20828;-78
2021/06/08 12:33:00;;;;;;;0.40;0.30;;;19.20;99.90;;;;;;5112821;28;20386;-80
2021/06/08 12:35:27;;;;;;;0.40;0.20;;;19.10;99.90;;;;;;5131798;28;20411;-79
2021/06/08 12:38:06;;;;;;;0.40;0.20;;;19.10;99.90;;;;;;5131296;28;20414;-81
2021/06/08 12:40:32;;;;;;;0.40;0.20;;;19.10;99.90;;;;;;5113418;28;20390;-79
2021/06/08 12:43:00;;;;;;;0.40;0.20;;;19.00;99.90;;;;;;5130827;28;20751;-79
2021/06/08 12:45:26;;;;;;;0.40;0.30;;;19.30;99.90;;;;;;5131644;28;20380;-78
2021/06/08 12:47:52;;;;;;;0.40;0.30;;;19.60;99.90;;;;;;5131401;28;20971;-79
2021/06/08 12:50:31;;;;;;;0.40;0.30;;;20.20;99.90;;;;;;5122612;28;20457;-78
2021/06/08 12:53:06;;;;;;;0.40;0.30;;;20.90;99.90;;;;;;5122338;28;20380;-79
2021/06/08 12:55:33;;;;;;;0.40;0.30;;;20.40;99.90;;;;;;5121160;28;20418;-79
2021/06/08 12:58:03;;;;;;;0.40;0.30;;;20.70;99.90;;;;;;5130879;27;20488;-79
2021/06/08 13:00:34;;;;;;;0.40;0.30;;;20.50;99.90;;;;;;5137429;27;20455;-80
2021/06/08 13:03:01;;;;;;;0.40;0.30;;;20.60;99.90;;;;;;5127485;27;20391;-81